createdAt,value
2018-11-20T00:01:14.659Z,-0.35
2018-11-20T00:04:05.588Z,-0.34
2018-11-20T00:06:56.592Z,-0.39
2018-11-20T00:09:47.060Z,-0.44
2018-11-20T00:12:38.096Z,-0.56
2018-11-20T00:15:44.958Z,-0.59
2018-11-20T00:18:24.874Z,-0.65
2018-11-20T00:21:04.693Z,-0.71
2018-11-20T00:24:02.595Z,-0.69
2018-11-20T00:26:53.422Z,-0.69
2018-11-20T00:29:42.725Z,-0.74
2018-11-20T00:32:37.344Z,-0.73
2018-11-20T00:35:26.652Z,-0.74
2018-11-20T00:38:17.289Z,-0.76
2018-11-20T00:41:09.342Z,-0.88
2018-11-20T00:43:59.889Z,-0.99
2018-11-20T00:47:09.906Z,-1.11
2018-11-20T00:50:01.957Z,-1.12
2018-11-20T00:52:56.594Z,-1.18
2018-11-20T00:56:25.073Z,-1.19
2018-11-20T00:59:15.621Z,-1.43
2018-11-20T01:02:12.556Z,-1.19
2018-11-20T01:05:03.857Z,-1.18
2018-11-20T01:08:05.145Z,-1.16
2018-11-20T01:10:59.898Z,-1.32
2018-11-20T01:13:45.045Z,-1.09
2018-11-20T01:16:37.099Z,-0.93
2018-11-20T01:19:29.239Z,-0.89
2018-11-20T01:22:30.091Z,-0.94
2018-11-20T01:25:21.039Z,-0.85
2018-11-20T01:28:11.838Z,-0.88
2018-11-20T01:31:06.434Z,-0.84
2018-11-20T01:34:10.499Z,-0.84
2018-11-20T01:37:08.881Z,-0.90
2018-11-20T01:39:59.916Z,-1.00
2018-11-20T01:42:44.928Z,-1.19
2018-11-20T01:45:35.513Z,-1.23
2018-11-20T01:48:36.382Z,-1.32
2018-11-20T01:51:31.182Z,-1.19
2018-11-20T01:54:23.050Z,-1.27
2018-11-20T01:57:33.310Z,-1.34
2018-11-20T02:00:39.926Z,-1.43
2018-11-20T02:03:41.739Z,-1.26
2018-11-20T02:06:36.572Z,-1.10
2018-11-20T02:09:40.496Z,-0.97
2018-11-20T02:12:31.280Z,-0.93
2018-11-20T02:15:23.348Z,-0.80
2018-11-20T02:18:28.997Z,-0.87
2018-11-20T02:21:15.599Z,-0.79
2018-11-20T02:24:07.721Z,-0.65
2018-11-20T02:27:05.117Z,-0.49
2018-11-20T02:30:05.707Z,-0.34
2018-11-20T02:32:49.343Z,-0.33
2018-11-20T02:35:41.421Z,-0.29
2018-11-20T02:38:31.931Z,-0.30
2018-11-20T02:41:38.873Z,-0.33
2018-11-20T02:44:25.004Z,-0.24
2018-11-20T02:47:15.863Z,-0.31
2018-11-20T02:50:04.041Z,-0.36
2018-11-20T02:52:45.817Z,-0.39
2018-11-20T02:55:38.263Z,-0.38
2018-11-20T02:58:28.916Z,-0.39
2018-11-20T03:01:32.938Z,-0.31
2018-11-20T03:04:25.128Z,-0.25
2018-11-20T03:07:15.662Z,-0.22
2018-11-20T03:10:06.093Z,-0.18
2018-11-20T03:13:00.777Z,-0.14
2018-11-20T03:15:52.454Z,0.02
2018-11-20T03:18:53.254Z,0.02
2018-11-20T03:21:48.122Z,0.16
2018-11-20T03:24:38.787Z,0.11
2018-11-20T03:27:24.824Z,0.20
2018-11-20T03:30:48.465Z,0.07
2018-11-20T03:33:39.332Z,0.17
2018-11-20T03:36:46.258Z,0.25
2018-11-20T03:39:55.338Z,0.20
2018-11-20T03:42:46.230Z,0.14
2018-11-20T03:45:38.289Z,0.31
2018-11-20T03:48:25.555Z,0.20
2018-11-20T03:51:23.420Z,0.10
2018-11-20T03:54:06.423Z,0.31
2018-11-20T03:57:16.323Z,0.38
2018-11-20T04:00:11.214Z,0.34
2018-11-20T04:03:06.104Z,0.31
2018-11-20T04:05:51.192Z,0.40
2018-11-20T04:08:41.711Z,0.46
2018-11-20T04:11:36.386Z,0.47
2018-11-20T04:14:23.804Z,0.50
2018-11-20T04:17:14.521Z,0.63
2018-11-20T04:19:55.983Z,0.61
2018-11-20T04:22:46.713Z,0.69
2018-11-20T04:25:44.394Z,0.66
2018-11-20T04:28:28.677Z,0.64
2018-11-20T04:31:56.075Z,0.70
2018-11-20T04:34:40.067Z,0.59
2018-11-20T04:37:38.042Z,0.60
2018-11-20T04:40:45.022Z,0.54
2018-11-20T04:43:37.095Z,0.69
2018-11-20T04:46:27.576Z,0.71
2018-11-20T04:49:19.662Z,0.72
2018-11-20T04:52:14.565Z,0.54
2018-11-20T04:55:15.517Z,0.51
2018-11-20T04:58:01.392Z,0.53
2018-11-20T05:00:41.542Z,0.44
2018-11-20T05:03:45.411Z,0.51
2018-11-20T05:06:36.308Z,0.52
2018-11-20T05:09:27.944Z,0.64
2018-11-20T05:12:22.417Z,0.74
2018-11-20T05:15:29.666Z,0.57
2018-11-20T05:18:20.436Z,0.61
2018-11-20T05:21:12.495Z,0.77
2018-11-20T05:24:04.550Z,0.95
2018-11-20T05:27:05.301Z,1.07
2018-11-20T05:29:46.221Z,1.14
2018-11-20T05:32:38.259Z,1.22
2018-11-20T05:35:25.071Z,1.25
2018-11-20T05:38:04.580Z,1.30
2018-11-20T05:40:55.506Z,1.26
2018-11-20T05:43:53.816Z,1.33
2018-11-20T05:46:40.562Z,1.57
2018-11-20T05:49:22.435Z,1.75
2018-11-20T05:52:18.004Z,1.87
2018-11-20T05:54:56.034Z,2.02
2018-11-20T05:58:03.386Z,2.10
2018-11-20T06:01:04.544Z,2.09
2018-11-20T06:03:45.739Z,1.88
2018-11-20T06:06:36.221Z,1.73
2018-11-20T06:09:23.722Z,1.60
2018-11-20T06:12:24.504Z,1.57
2018-11-20T06:15:14.939Z,1.52
2018-11-20T06:21:20.245Z,1.54
2018-11-20T06:24:11.467Z,1.43
2018-11-20T06:26:52.129Z,1.36
2018-11-20T06:29:43.361Z,1.29
2018-11-20T06:32:34.607Z,1.24
2018-11-20T06:35:25.861Z,1.19
2018-11-20T06:38:17.082Z,1.12
2018-11-20T06:41:26.917Z,1.07
2018-11-20T06:44:13.131Z,1.06
2018-11-20T06:47:06.377Z,1.02
2018-11-20T06:49:56.654Z,1.02
2018-11-20T06:52:48.025Z,1.02
2018-11-20T06:55:39.258Z,0.99
2018-11-20T06:58:42.569Z,0.99
2018-11-20T07:01:43.220Z,1.02
2018-11-20T07:04:41.414Z,1.02
2018-11-20T07:07:32.913Z,1.01
2018-11-20T07:10:21.287Z,1.01
2018-11-20T07:13:13.615Z,0.97
2018-11-20T07:16:11.300Z,0.94
2018-11-20T07:18:57.165Z,0.96
2018-11-20T07:21:45.295Z,0.97
2018-11-20T07:24:39.178Z,0.93
2018-11-20T07:27:21.317Z,0.93
2018-11-20T07:30:17.794Z,0.93
2018-11-20T07:33:08.968Z,0.95
2018-11-20T07:35:59.053Z,0.91
2018-11-20T07:38:59.403Z,0.89
2018-11-20T07:41:49.594Z,0.88
2018-11-20T07:44:49.719Z,0.85
2018-11-20T07:47:41.031Z,0.83
2018-11-20T07:50:32.352Z,0.78
2018-11-20T07:53:22.253Z,0.85
2018-11-20T07:56:12.366Z,0.85
2018-11-20T07:59:09.347Z,0.87
2018-11-20T08:02:06.457Z,0.89
2018-11-20T08:04:45.499Z,0.94
2018-11-20T08:07:42.390Z,0.96
2018-11-20T08:10:36.696Z,0.92
2018-11-20T08:13:30.970Z,0.93
2018-11-20T08:16:08.208Z,0.89
2018-11-20T08:18:59.152Z,0.99
2018-11-20T08:21:49.313Z,1.01
2018-11-20T08:24:31.428Z,1.02
2018-11-20T08:27:20.016Z,1.08
2018-11-20T08:30:01.144Z,1.22
2018-11-20T08:33:04.345Z,1.19
2018-11-20T08:35:53.020Z,1.21
2018-11-20T08:38:35.785Z,1.29
2018-11-20T08:41:32.911Z,1.34
2018-11-20T08:44:30.259Z,1.49
2018-11-20T08:47:20.611Z,1.50
2018-11-20T08:50:21.362Z,1.46
2018-11-20T08:53:15.665Z,1.44
2018-11-20T08:56:06.030Z,1.44
2018-11-20T08:58:56.754Z,1.46
2018-11-20T09:01:48.130Z,1.54
2018-11-20T09:04:42.018Z,1.56
2018-11-20T09:07:38.409Z,1.55
2018-11-20T09:10:47.783Z,1.59
2018-11-20T09:13:42.282Z,1.71
2018-11-20T09:16:48.889Z,1.70
2018-11-20T09:19:42.957Z,1.75
2018-11-20T09:22:34.277Z,1.79
2018-11-20T09:25:31.558Z,1.83
2018-11-20T09:28:38.146Z,1.91
2018-11-20T09:31:35.453Z,2.36
2018-11-20T09:34:25.685Z,2.52
2018-11-20T09:37:22.671Z,2.73
2018-11-20T09:40:49.986Z,2.80
2018-11-20T09:43:43.805Z,3.24
2018-11-20T09:46:33.659Z,4.30
2018-11-20T09:49:27.683Z,4.70
2018-11-20T09:52:17.638Z,3.66
2018-11-20T09:55:14.064Z,3.47
2018-11-20T09:58:07.676Z,3.68
2018-11-20T10:00:57.588Z,4.08
2018-11-20T10:03:53.068Z,4.18
2018-11-20T10:06:32.175Z,3.98
2018-11-20T10:09:38.969Z,3.78
2018-11-20T10:12:30.259Z,3.65
2018-11-20T10:15:20.960Z,3.54
2018-11-20T10:18:13.552Z,3.46
2018-11-20T10:21:01.113Z,3.58
2018-11-20T10:23:45.420Z,3.69
2018-11-20T10:26:31.581Z,3.34
2018-11-20T10:29:46.498Z,3.30
2018-11-20T10:32:36.666Z,3.42
2018-11-20T10:35:26.627Z,3.61
2018-11-20T10:38:15.635Z,3.83
2018-11-20T10:40:59.334Z,4.08
2018-11-20T10:43:53.107Z,4.14
2018-11-20T10:46:49.927Z,4.26
2018-11-20T10:49:53.216Z,4.37
2018-11-20T10:52:37.063Z,4.61
2018-11-20T10:55:27.217Z,4.85
2018-11-20T10:58:17.068Z,4.93
2018-11-20T11:01:08.322Z,5.08
2018-11-20T11:03:59.583Z,5.23
2018-11-20T11:06:50.985Z,5.09
2018-11-20T11:09:42.101Z,5.20
2018-11-20T11:12:33.366Z,5.13
2018-11-20T11:15:17.009Z,5.14
2018-11-20T11:18:08.612Z,5.42
2018-11-20T11:21:06.012Z,5.80
2018-11-20T11:23:53.836Z,5.51
2018-11-20T11:26:50.907Z,5.32
2018-11-20T11:29:51.323Z,5.33
2018-11-20T11:32:30.950Z,5.62
2018-11-20T11:35:31.655Z,5.33
2018-11-20T11:38:22.883Z,5.56
2018-11-20T11:41:19.941Z,5.44
2018-11-20T11:44:14.082Z,5.58
2018-11-20T11:47:05.213Z,5.55
2018-11-20T11:50:08.738Z,5.55
2018-11-20T11:52:52.430Z,5.46
2018-11-20T11:55:43.738Z,5.56
2018-11-20T11:58:44.158Z,5.62
2018-11-20T12:04:41.836Z,5.81
2018-11-20T12:07:31.751Z,6.08
2018-11-20T12:10:36.262Z,5.95
2018-11-20T12:13:22.806Z,6.17
2018-11-20T12:16:14.129Z,6.34
2018-11-20T12:18:59.708Z,6.21
2018-11-20T12:21:56.666Z,6.22
2018-11-20T12:24:47.383Z,6.09
2018-11-20T12:27:53.472Z,6.27
2018-11-20T12:30:59.725Z,6.39
2018-11-20T12:34:06.113Z,6.34
2018-11-20T12:36:53.722Z,6.39
2018-11-20T12:39:44.937Z,6.43
2018-11-20T12:42:42.065Z,6.87
2018-11-20T12:45:34.225Z,6.76
2018-11-20T12:48:40.362Z,6.74
2018-11-20T12:51:33.370Z,6.80
2018-11-20T12:54:15.567Z,6.80
2018-11-20T12:57:05.735Z,6.49
2018-11-20T12:59:59.767Z,6.42
2018-11-20T13:03:09.343Z,6.52
2018-11-20T13:06:00.701Z,6.44
2018-11-20T13:08:57.481Z,6.32
2018-11-20T13:12:07.016Z,6.30
2018-11-20T13:14:49.541Z,6.25
2018-11-20T13:17:29.926Z,6.14
2018-11-20T13:20:24.278Z,6.15
2018-11-20T13:23:04.307Z,6.19
2018-11-20T13:25:55.656Z,6.16
2018-11-20T13:28:46.954Z,6.30
2018-11-20T13:31:36.793Z,6.32
2018-11-20T13:34:29.035Z,6.25
2018-11-20T13:37:21.215Z,6.25
2018-11-20T13:40:21.527Z,6.27
2018-11-20T13:43:14.935Z,6.26
2018-11-20T13:45:58.016Z,6.21
2018-11-20T13:48:39.197Z,6.21
2018-11-20T13:51:29.678Z,6.15
2018-11-20T13:54:20.791Z,6.08
2018-11-20T13:57:17.318Z,6.08
2018-11-20T14:00:04.036Z,6.09
2018-11-20T14:02:58.031Z,6.09
2018-11-20T14:05:47.334Z,6.07
2018-11-20T14:08:47.510Z,6.06
2018-11-20T14:11:46.528Z,6.05
2018-11-20T14:14:32.405Z,6.03
2018-11-20T14:17:23.090Z,5.96
2018-11-20T14:20:24.545Z,5.87
2018-11-20T14:23:34.080Z,5.86
2018-11-20T14:26:43.912Z,5.87
2018-11-20T14:29:44.095Z,5.76
2018-11-20T14:32:24.070Z,5.64
2018-11-20T14:35:06.869Z,5.64
2018-11-20T14:37:58.316Z,5.57
2018-11-20T14:41:07.917Z,5.50
2018-11-20T14:44:05.274Z,5.08
2018-11-20T14:46:54.963Z,5.27
2018-11-20T14:50:01.316Z,5.14
2018-11-20T14:52:51.385Z,5.06
2018-11-20T14:55:57.888Z,5.07
2018-11-20T14:59:07.369Z,5.01
2018-11-20T15:02:01.668Z,4.79
2018-11-20T15:04:43.658Z,4.82
2018-11-20T15:07:31.761Z,4.55
2018-11-20T15:10:25.333Z,4.29
2018-11-20T15:13:15.055Z,4.03
2018-11-20T15:16:09.107Z,3.88
2018-11-20T15:19:09.832Z,3.74
2018-11-20T15:21:57.969Z,3.45
2018-11-20T15:24:55.117Z,3.31
2018-11-20T15:27:41.641Z,3.13
2018-11-20T15:30:33.041Z,3.05
2018-11-20T15:33:24.329Z,3.03
2018-11-20T15:36:27.589Z,2.88
2018-11-20T15:39:14.821Z,2.77
2018-11-20T15:42:06.943Z,2.60
2018-11-20T15:44:54.450Z,2.56
2018-11-20T15:47:41.397Z,2.39
2018-11-20T15:50:25.996Z,2.36
2018-11-20T15:53:20.336Z,2.40
2018-11-20T15:56:15.891Z,2.38
2018-11-20T15:59:06.260Z,2.35
2018-11-20T16:01:54.863Z,2.25
2018-11-20T16:04:45.108Z,2.24
2018-11-20T16:07:30.503Z,2.12
2018-11-20T16:10:27.942Z,1.99
2018-11-20T16:13:11.495Z,1.75
2018-11-20T16:16:03.099Z,1.73
2018-11-20T16:18:53.401Z,1.63
2018-11-20T16:21:42.288Z,1.64
2018-11-20T16:24:25.430Z,1.55
2018-11-20T16:27:19.746Z,1.61
2018-11-20T16:30:05.867Z,1.51
2018-11-20T16:32:56.063Z,1.50
2018-11-20T16:36:05.510Z,1.45
2018-11-20T16:38:55.384Z,1.39
2018-11-20T16:42:04.928Z,1.27
2018-11-20T16:45:02.434Z,1.29
2018-11-20T16:47:56.730Z,1.28
2018-11-20T16:50:45.986Z,1.27
2018-11-20T16:53:43.416Z,1.16
2018-11-20T16:56:30.523Z,1.04
2018-11-20T16:59:27.594Z,0.94
2018-11-20T17:02:17.848Z,0.97
2018-11-20T17:05:09.124Z,0.97
2018-11-20T17:08:00.411Z,0.94
2018-11-20T17:10:45.307Z,0.90
2018-11-20T17:13:42.946Z,0.89
2018-11-20T17:16:40.351Z,0.92
2018-11-20T17:19:31.747Z,0.79
2018-11-20T17:22:21.650Z,0.73
2018-11-20T17:25:18.436Z,0.65
2018-11-20T17:28:03.371Z,0.64
2018-11-20T17:30:42.808Z,0.56
2018-11-20T17:33:49.316Z,0.56
2018-11-20T17:36:42.391Z,0.52
2018-11-20T17:39:36.656Z,0.49
2018-11-20T17:42:43.150Z,0.31
2018-11-20T17:45:34.190Z,0.28
2018-11-20T17:48:36.481Z,0.12
2018-11-20T17:51:33.889Z,0.19
2018-11-20T17:54:11.872Z,0.15
2018-11-20T17:57:09.203Z,0.14
2018-11-20T17:59:52.586Z,0.19
2018-11-20T18:02:42.526Z,0.11
2018-11-20T18:05:39.604Z,0.26
2018-11-20T18:08:37.170Z,0.15
2018-11-20T18:11:40.768Z,0.17
2018-11-20T18:14:31.191Z,0.10
2018-11-20T18:17:11.479Z,0.06
2018-11-20T18:20:01.530Z,0.00
2018-11-20T18:23:02.371Z,-0.04
2018-11-20T18:25:57.689Z,0.03
2018-11-20T18:29:01.297Z,0.03
2018-11-20T18:31:58.034Z,0.09
2018-11-20T18:34:44.740Z,-0.12
2018-11-20T18:37:38.890Z,-0.09
2018-11-20T18:40:29.119Z,-0.22
2018-11-20T18:43:32.359Z,-0.19
2018-11-20T18:46:32.648Z,-0.13
2018-11-20T18:49:33.144Z,-0.07
2018-11-20T18:52:23.414Z,0.06
2018-11-20T18:55:14.354Z,0.10
2018-11-20T18:58:01.799Z,0.17
2018-11-20T19:00:52.138Z,0.12
2018-11-20T19:03:42.118Z,-0.04
2018-11-20T19:06:39.256Z,-0.01
2018-11-20T19:09:36.880Z,-0.07
2018-11-20T19:12:27.005Z,-0.20
2018-11-20T19:15:20.374Z,-0.16
2018-11-20T19:18:12.128Z,-0.19
2018-11-20T19:21:06.167Z,-0.14
2018-11-20T19:24:00.740Z,-0.19
2018-11-20T19:26:42.542Z,-0.14
2018-11-20T19:29:32.828Z,-0.10
2018-11-20T19:32:27.343Z,-0.10
2018-11-20T19:35:19.054Z,-0.05
2018-11-20T19:38:22.328Z,-0.17
2018-11-20T19:41:12.549Z,-0.29
2018-11-20T19:44:06.589Z,-0.34
2018-11-20T19:46:56.884Z,-0.30
2018-11-20T19:50:00.227Z,-0.22
2018-11-20T19:52:50.329Z,-0.23
2018-11-20T19:55:47.445Z,-0.31
2018-11-20T19:58:41.720Z,-0.34
2018-11-20T20:01:45.326Z,-0.37
2018-11-20T20:04:36.634Z,-0.19
2018-11-20T20:07:33.977Z,-0.45
2018-11-20T20:10:36.489Z,-0.37
2018-11-20T20:13:29.393Z,-0.54
2018-11-20T20:16:26.610Z,-0.62
2018-11-20T20:19:17.395Z,-0.65
2018-11-20T20:22:13.390Z,-0.73
2018-11-20T20:25:13.886Z,-1.07
2018-11-20T20:28:06.538Z,-1.13
2018-11-20T20:30:57.986Z,-1.25
2018-11-20T20:34:01.456Z,-1.18
2018-11-20T20:36:43.572Z,-1.34
2018-11-20T20:39:53.196Z,-1.37
2018-11-20T20:42:43.229Z,-1.41
2018-11-20T20:45:34.891Z,-1.42
2018-11-20T20:48:27.664Z,-1.42
2018-11-20T20:51:09.679Z,-1.32
2018-11-20T20:53:53.376Z,-1.34
2018-11-20T20:56:43.042Z,-1.35
2018-11-20T20:59:36.066Z,-1.45
2018-11-20T21:02:39.417Z,-1.46
2018-11-20T21:05:33.071Z,-1.35
2018-11-20T21:08:23.118Z,-1.37
2018-11-20T21:11:08.733Z,-1.37
2018-11-20T21:13:58.926Z,-1.33
2018-11-20T21:16:49.390Z,-1.43
2018-11-20T21:19:39.379Z,-1.52
2018-11-20T21:22:30.701Z,-1.59
2018-11-20T21:25:20.674Z,-1.67
2018-11-20T21:28:12.241Z,-1.55
2018-11-20T21:31:08.156Z,-1.60
2018-11-20T21:33:58.455Z,-1.56
2018-11-20T21:36:47.368Z,-1.45
2018-11-20T21:39:38.687Z,-1.60
2018-11-20T21:42:28.768Z,-1.64
2018-11-20T21:45:32.130Z,-1.69
2018-11-20T21:48:41.965Z,-1.81
2018-11-20T21:51:36.209Z,-1.56
2018-11-20T21:54:26.398Z,-1.52
2018-11-20T21:57:23.965Z,-1.41
2018-11-20T22:00:09.509Z,-1.26
2018-11-20T22:03:09.934Z,-1.19
2018-11-20T22:05:58.124Z,-1.18
2018-11-20T22:08:52.161Z,-1.28
2018-11-20T22:11:52.744Z,-1.48
2018-11-20T22:14:36.935Z,-1.65
2018-11-20T22:17:26.816Z,-1.77
2018-11-20T22:20:33.241Z,-1.79
2018-11-20T22:23:27.074Z,-1.77
2018-11-20T22:26:17.079Z,-1.87
2018-11-20T22:29:06.971Z,-2.04
2018-11-20T22:31:56.922Z,-2.09
2018-11-20T22:35:03.801Z,-2.16
2018-11-20T22:37:53.650Z,-2.18
2018-11-20T22:40:44.984Z,-2.18
2018-11-20T22:43:35.309Z,-2.16
2018-11-20T22:46:25.404Z,-2.19
2018-11-20T22:49:15.536Z,-2.37
2018-11-20T22:52:12.902Z,-2.40
2018-11-20T22:55:03.159Z,-2.36
2018-11-20T22:57:53.155Z,-2.33
2018-11-20T23:01:02.897Z,-2.39
2018-11-20T23:03:57.620Z,-2.43
2018-11-20T23:06:47.037Z,-2.43
2018-11-20T23:09:18.728Z,-2.36
2018-11-20T23:11:50.401Z,-2.42
2018-11-20T23:14:22.084Z,-2.43
2018-11-20T23:16:53.747Z,-2.47
2018-11-20T23:19:25.428Z,-2.51
2018-11-20T23:21:57.114Z,-2.46
2018-11-20T23:24:28.806Z,-2.38
2018-11-20T23:27:00.480Z,-2.48
2018-11-20T23:29:32.140Z,-2.54
2018-11-20T23:32:03.963Z,-2.59
2018-11-20T23:34:35.687Z,-2.34
2018-11-20T23:37:07.339Z,-2.26
2018-11-20T23:39:39.037Z,-2.22
2018-11-20T23:42:10.721Z,-2.16
2018-11-20T23:44:42.813Z,-2.18
2018-11-20T23:47:14.454Z,-2.14
2018-11-20T23:49:46.535Z,-2.18
2018-11-20T23:52:18.259Z,-2.24
2018-11-20T23:54:49.952Z,-2.33
2018-11-20T23:57:21.633Z,-2.51
2018-11-20T23:59:53.325Z,-2.51
